createdAt,value
2018-03-14T00:00:38.351Z,86.38
2018-03-14T00:01:38.373Z,86.57
2018-03-14T00:02:38.385Z,86.66
2018-03-14T00:03:38.405Z,86.38
2018-03-14T00:04:38.441Z,86.66
2018-03-14T00:05:38.437Z,86.18
2018-03-14T00:06:38.454Z,86.47
2018-03-14T00:07:38.471Z,86.47
2018-03-14T00:08:38.487Z,86.94
2018-03-14T00:09:38.505Z,87.23
2018-03-14T00:10:38.522Z,87.61
2018-03-14T00:11:38.548Z,87.04
2018-03-14T00:12:38.555Z,86.85
2018-03-14T00:13:38.575Z,86.94
2018-03-14T00:14:38.588Z,86.85
2018-03-14T00:15:38.613Z,87.32
2018-03-14T00:16:38.627Z,87.61
2018-03-14T00:17:38.640Z,87.80
2018-03-14T00:18:38.655Z,88.80
2018-03-14T00:19:38.678Z,88.85
2018-03-14T00:20:38.691Z,88.33
2018-03-14T00:21:38.717Z,89.09
2018-03-14T00:22:38.725Z,89.09
2018-03-14T00:23:38.741Z,88.66
2018-03-14T00:24:38.766Z,87.90
2018-03-14T00:25:38.778Z,87.90
2018-03-14T00:26:38.794Z,87.52
2018-03-14T00:27:38.811Z,87.61
2018-03-14T00:28:38.828Z,87.42
2018-03-14T00:29:38.846Z,87.61
2018-03-14T00:30:38.865Z,88.28
2018-03-14T00:31:38.886Z,88.18
2018-03-14T00:32:38.895Z,87.80
2018-03-14T00:33:38.912Z,87.32
2018-03-14T00:34:38.930Z,87.52
2018-03-14T00:35:38.948Z,87.90
2018-03-14T00:36:38.964Z,88.18
2018-03-14T00:37:38.982Z,87.32
2018-03-14T00:38:38.998Z,87.42
2018-03-14T00:39:39.015Z,86.85
2018-03-14T00:40:39.035Z,87.90
2018-03-14T00:41:39.055Z,87.61
2018-03-14T00:42:39.063Z,87.42
2018-03-14T00:43:39.090Z,87.99
2018-03-14T00:44:39.106Z,88.28
2018-03-14T00:45:39.148Z,88.56
2018-03-14T00:46:39.167Z,88.56
2018-03-14T00:47:39.153Z,89.14
2018-03-14T00:48:39.195Z,88.75
2018-03-14T00:49:39.187Z,88.85
2018-03-14T00:50:39.200Z,89.28
2018-03-14T00:51:39.231Z,89.09
2018-03-14T00:52:39.241Z,89.23
2018-03-14T00:53:39.258Z,88.66
2018-03-14T00:54:39.277Z,88.18
2018-03-14T00:55:39.288Z,88.37
2018-03-14T00:56:39.306Z,87.99
2018-03-14T00:57:39.325Z,87.71
2018-03-14T00:58:39.341Z,87.71
2018-03-14T00:59:39.357Z,87.52
2018-03-14T01:00:39.371Z,88.46
2018-03-14T01:01:39.390Z,88.37
2018-03-14T01:02:39.407Z,88.37
2018-03-14T01:03:39.423Z,88.18
2018-03-14T01:04:39.446Z,87.61
2018-03-14T01:05:39.458Z,87.99
2018-03-14T01:06:39.480Z,87.90
2018-03-14T01:07:39.494Z,87.99
2018-03-14T01:08:39.514Z,88.18
2018-03-14T01:09:39.530Z,87.99
2018-03-14T01:10:39.548Z,87.52
2018-03-14T01:11:39.560Z,86.94
2018-03-14T01:12:39.578Z,87.90
2018-03-14T01:13:39.596Z,88.09
2018-03-14T01:14:39.615Z,87.90
2018-03-14T01:15:39.631Z,87.90
2018-03-14T01:16:39.657Z,87.52
2018-03-14T01:17:39.665Z,87.90
2018-03-14T01:18:39.685Z,87.90
2018-03-14T01:19:39.700Z,87.90
2018-03-14T01:20:39.725Z,88.18
2018-03-14T01:21:39.731Z,87.99
2018-03-14T01:22:39.749Z,87.71
2018-03-14T01:23:39.769Z,86.85
2018-03-14T01:24:39.785Z,87.71
2018-03-14T01:25:39.820Z,87.61
2018-03-14T01:26:39.829Z,87.52
2018-03-14T01:27:39.838Z,87.61
2018-03-14T01:28:39.854Z,87.71
2018-03-14T01:29:39.872Z,87.71
2018-03-14T01:30:39.888Z,87.42
2018-03-14T01:31:39.902Z,87.71
2018-03-14T01:32:39.923Z,87.71
2018-03-14T01:33:39.942Z,86.66
2018-03-14T01:34:39.960Z,86.85
2018-03-14T01:35:39.976Z,87.23
2018-03-14T01:36:39.993Z,87.71
2018-03-14T01:37:40.009Z,87.61
2018-03-14T01:38:40.035Z,87.61
2018-03-14T01:39:40.044Z,87.90
2018-03-14T01:40:40.060Z,88.09
2018-03-14T01:41:40.077Z,88.80
2018-03-14T01:42:40.098Z,88.94
2018-03-14T01:43:40.113Z,88.13
2018-03-14T01:44:40.142Z,88.94
2018-03-14T01:45:40.148Z,87.99
2018-03-14T01:46:40.164Z,87.80
2018-03-14T01:47:40.182Z,87.52
2018-03-14T01:48:40.203Z,86.85
2018-03-14T01:49:40.216Z,87.04
2018-03-14T01:50:40.240Z,86.57
2018-03-14T01:51:40.252Z,86.76
2018-03-14T01:52:40.273Z,87.85
2018-03-14T01:53:40.291Z,87.52
2018-03-14T01:54:40.309Z,87.61
2018-03-14T01:55:40.319Z,87.32
2018-03-14T01:56:40.336Z,86.94
2018-03-14T01:57:40.352Z,87.90
2018-03-14T01:58:40.372Z,87.61
2018-03-14T01:59:40.389Z,87.90
2018-03-14T02:00:40.454Z,86.66
2018-03-14T02:01:40.424Z,86.47
2018-03-14T02:02:40.473Z,86.85
2018-03-14T02:03:40.456Z,87.99
2018-03-14T02:04:40.485Z,87.99
2018-03-14T02:05:40.491Z,87.90
2018-03-14T02:06:40.512Z,87.66
2018-03-14T02:07:40.527Z,88.23
2018-03-14T02:08:40.546Z,88.80
2018-03-14T02:09:40.562Z,89.09
2018-03-14T02:10:40.609Z,88.33
2018-03-14T02:11:40.597Z,88.33
2018-03-14T02:12:40.614Z,88.61
2018-03-14T02:13:40.631Z,89.56
2018-03-14T02:14:40.654Z,89.75
2018-03-14T02:15:40.663Z,89.66
2018-03-14T02:16:40.681Z,88.13
2018-03-14T02:17:40.700Z,88.80
2018-03-14T02:18:40.717Z,88.13
2018-03-14T02:19:40.741Z,88.33
2018-03-14T02:20:40.762Z,87.52
2018-03-14T02:21:40.768Z,86.94
2018-03-14T02:22:40.787Z,86.18
2018-03-14T02:23:40.807Z,86.80
2018-03-14T02:24:40.822Z,86.38
2018-03-14T02:25:40.838Z,86.18
2018-03-14T02:26:40.854Z,85.80
2018-03-14T02:27:40.876Z,85.52
2018-03-14T02:28:40.891Z,85.71
2018-03-14T02:29:40.907Z,85.80
2018-03-14T02:30:40.926Z,85.99
2018-03-14T02:31:40.939Z,86.47
2018-03-14T02:32:40.961Z,86.09
2018-03-14T02:33:40.976Z,86.24
2018-03-14T02:34:40.995Z,87.09
2018-03-14T02:35:41.014Z,86.85
2018-03-14T02:36:41.029Z,85.61
2018-03-14T02:37:41.047Z,85.71
2018-03-14T02:38:41.063Z,86.38
2018-03-14T02:39:41.080Z,86.14
2018-03-14T02:40:41.096Z,86.94
2018-03-14T02:41:41.116Z,86.47
2018-03-14T02:42:41.131Z,86.38
2018-03-14T02:43:41.149Z,86.09
2018-03-14T02:44:41.165Z,85.99
2018-03-14T02:45:41.228Z,85.71
2018-03-14T02:46:41.199Z,85.71
2018-03-14T02:47:41.216Z,85.71
2018-03-14T02:48:41.233Z,85.71
2018-03-14T02:49:41.253Z,86.57
2018-03-14T02:50:41.267Z,86.66
2018-03-14T02:51:41.355Z,85.99
2018-03-14T02:52:41.315Z,86.18
2018-03-14T02:53:41.321Z,86.47
2018-03-14T02:54:41.337Z,86.47
2018-03-14T02:55:41.356Z,86.76
2018-03-14T02:56:41.370Z,86.76
2018-03-14T02:57:41.388Z,86.61
2018-03-14T02:58:41.403Z,86.99
2018-03-14T02:59:41.424Z,86.38
2018-03-14T03:00:41.438Z,86.18
2018-03-14T03:01:41.454Z,86.18
2018-03-14T03:02:41.472Z,85.80
2018-03-14T03:03:41.496Z,86.76
2018-03-14T03:04:41.507Z,85.99
2018-03-14T03:05:41.528Z,86.71
2018-03-14T03:06:41.543Z,86.38
2018-03-14T03:07:41.560Z,86.47
2018-03-14T03:08:41.574Z,86.18
2018-03-14T03:09:41.593Z,86.28
2018-03-14T03:10:41.615Z,86.28
2018-03-14T03:11:41.625Z,86.52
2018-03-14T03:12:41.644Z,86.43
2018-03-14T03:13:41.663Z,86.71
2018-03-14T03:14:41.680Z,86.80
2018-03-14T03:15:41.697Z,86.80
2018-03-14T03:16:41.714Z,86.90
2018-03-14T03:17:41.732Z,86.90
2018-03-14T03:18:41.747Z,86.71
2018-03-14T03:19:41.765Z,86.80
2018-03-14T03:20:41.780Z,86.71
2018-03-14T03:21:41.822Z,86.66
2018-03-14T03:22:41.814Z,86.66
2018-03-14T03:23:41.832Z,86.71
2018-03-14T03:24:41.848Z,87.09
2018-03-14T03:25:41.866Z,86.38
2018-03-14T03:26:41.889Z,86.66
2018-03-14T03:27:41.902Z,86.38
2018-03-14T03:28:41.920Z,86.61
2018-03-14T03:29:41.935Z,86.38
2018-03-14T03:30:41.956Z,86.33
2018-03-14T03:31:41.973Z,86.61
2018-03-14T03:32:41.986Z,86.33
2018-03-14T03:33:41.999Z,86.80
2018-03-14T03:34:42.021Z,86.52
2018-03-14T03:35:42.037Z,86.52
2018-03-14T03:36:42.112Z,86.33
2018-03-14T03:37:42.078Z,86.38
2018-03-14T03:38:42.092Z,86.24
2018-03-14T03:39:42.108Z,86.57
2018-03-14T03:40:42.123Z,86.28
2018-03-14T03:41:42.146Z,86.18
2018-03-14T03:42:42.152Z,86.38
2018-03-14T03:43:42.169Z,86.24
2018-03-14T03:44:42.194Z,86.38
2018-03-14T03:45:42.208Z,86.18
2018-03-14T03:46:42.224Z,86.43
2018-03-14T03:47:42.240Z,86.43
2018-03-14T03:48:42.259Z,86.14
2018-03-14T03:49:42.275Z,86.24
2018-03-14T03:50:42.305Z,85.95
2018-03-14T03:51:42.313Z,86.52
2018-03-14T03:52:42.325Z,86.61
2018-03-14T03:53:42.342Z,86.18
2018-03-14T03:54:42.366Z,86.61
2018-03-14T03:55:42.378Z,86.05
2018-03-14T03:56:42.394Z,86.80
2018-03-14T03:57:42.411Z,88.13
2018-03-14T03:58:42.435Z,88.61
2018-03-14T03:59:42.448Z,89.52
2018-03-14T04:00:42.480Z,90.37
2018-03-14T04:01:42.486Z,90.19
2018-03-14T04:02:42.494Z,90.19
2018-03-14T04:03:42.514Z,90.19
2018-03-14T04:04:42.536Z,90.47
2018-03-14T04:05:42.555Z,90.37
2018-03-14T04:06:42.568Z,90.19
2018-03-14T04:07:42.584Z,90.19
2018-03-14T04:08:42.601Z,89.75
2018-03-14T04:09:42.618Z,89.00
2018-03-14T04:10:42.635Z,87.85
2018-03-14T04:11:42.666Z,87.66
2018-03-14T04:12:42.671Z,87.76
2018-03-14T04:13:42.687Z,88.13
2018-03-14T04:14:42.703Z,88.33
2018-03-14T04:15:42.721Z,88.42
2018-03-14T04:16:42.739Z,89.18
2018-03-14T04:17:42.813Z,88.80
2018-03-14T04:18:42.773Z,89.09
2018-03-14T04:19:42.792Z,89.37
2018-03-14T04:20:42.808Z,90.00
2018-03-14T04:21:42.824Z,90.37
2018-03-14T04:22:42.850Z,90.94
2018-03-14T04:23:42.858Z,90.85
2018-03-14T04:24:42.877Z,90.47
2018-03-14T04:25:42.902Z,90.00
2018-03-14T04:26:42.909Z,89.90
2018-03-14T04:27:42.928Z,91.04
2018-03-14T04:28:42.947Z,90.85
2018-03-14T04:29:42.959Z,90.75
2018-03-14T04:30:42.981Z,91.42
2018-03-14T04:31:42.997Z,90.85
2018-03-14T04:32:43.014Z,90.47
2018-03-14T04:33:43.034Z,90.66
2018-03-14T04:34:43.050Z,90.56
2018-03-14T04:35:43.065Z,91.13
2018-03-14T04:36:43.081Z,90.42
2018-03-14T04:37:43.100Z,89.56
2018-03-14T04:38:43.117Z,89.37
2018-03-14T04:39:43.132Z,88.33
2018-03-14T04:40:43.152Z,87.19
2018-03-14T04:41:43.167Z,87.66
2018-03-14T04:42:43.192Z,87.28
2018-03-14T04:43:43.200Z,87.66
2018-03-14T04:44:43.218Z,87.32
2018-03-14T04:45:43.240Z,87.19
2018-03-14T04:46:43.254Z,86.71
2018-03-14T04:47:43.274Z,86.85
2018-03-14T04:48:43.289Z,86.85
2018-03-14T04:49:43.311Z,86.80
2018-03-14T04:50:43.326Z,86.71
2018-03-14T04:51:43.337Z,86.90
2018-03-14T04:52:43.366Z,86.71
2018-03-14T04:53:43.375Z,86.90
2018-03-14T04:54:43.394Z,87.09
2018-03-14T04:55:43.414Z,86.24
2018-03-14T04:56:43.427Z,86.52
2018-03-14T04:57:43.445Z,86.18
2018-03-14T04:58:43.462Z,86.09
2018-03-14T04:59:43.478Z,86.80
2018-03-14T05:00:43.502Z,86.14
2018-03-14T05:01:43.510Z,86.18
2018-03-14T05:02:43.531Z,86.38
2018-03-14T05:03:43.549Z,86.09
2018-03-14T05:04:43.567Z,86.57
2018-03-14T05:05:43.584Z,86.43
2018-03-14T05:06:43.614Z,86.05
2018-03-14T05:07:43.616Z,86.24
2018-03-14T05:08:43.633Z,86.61
2018-03-14T05:09:43.651Z,86.71
2018-03-14T05:10:43.669Z,86.57
2018-03-14T05:11:43.686Z,86.33
2018-03-14T05:12:43.705Z,86.90
2018-03-14T05:13:43.718Z,87.66
2018-03-14T05:14:43.734Z,86.71
2018-03-14T05:15:43.753Z,86.14
2018-03-14T05:16:43.769Z,86.14
2018-03-14T05:17:43.786Z,86.99
2018-03-14T05:18:43.808Z,86.43
2018-03-14T05:19:43.820Z,86.14
2018-03-14T05:20:43.839Z,85.14
2018-03-14T05:21:43.854Z,85.47
2018-03-14T05:22:43.873Z,85.76
2018-03-14T05:23:43.896Z,86.43
2018-03-14T05:24:43.907Z,85.66
2018-03-14T05:25:43.928Z,86.33
2018-03-14T05:26:43.954Z,86.33
2018-03-14T05:27:43.959Z,86.33
2018-03-14T05:28:43.976Z,85.86
2018-03-14T05:29:43.993Z,85.57
2018-03-14T05:30:44.009Z,86.47
2018-03-14T05:31:44.027Z,85.76
2018-03-14T05:32:44.050Z,86.33
2018-03-14T05:33:44.063Z,86.09
2018-03-14T05:34:44.075Z,85.42
2018-03-14T05:35:44.094Z,85.80
2018-03-14T05:36:44.111Z,85.80
2018-03-14T05:37:44.131Z,85.47
2018-03-14T05:38:44.147Z,85.71
2018-03-14T05:39:44.164Z,85.71
2018-03-14T05:40:44.186Z,85.52
2018-03-14T05:41:44.202Z,85.24
2018-03-14T05:42:44.216Z,84.66
2018-03-14T05:43:44.239Z,85.24
2018-03-14T05:44:44.249Z,84.66
2018-03-14T05:45:44.267Z,84.66
2018-03-14T05:46:44.286Z,84.47
2018-03-14T05:47:44.306Z,84.66
2018-03-14T05:48:44.319Z,85.28
2018-03-14T05:49:44.334Z,85.66
2018-03-14T05:50:44.359Z,84.81
2018-03-14T05:51:44.373Z,84.52
2018-03-14T05:52:44.387Z,84.66
2018-03-14T05:53:44.403Z,83.67
2018-03-14T05:54:44.424Z,84.14
2018-03-14T05:55:44.457Z,84.72
2018-03-14T05:56:44.466Z,85.28
2018-03-14T05:57:44.474Z,84.62
2018-03-14T05:58:44.487Z,84.62
2018-03-14T05:59:44.557Z,83.48
2018-03-14T06:00:44.523Z,83.71
2018-03-14T06:01:44.546Z,84.14
2018-03-14T06:02:44.558Z,83.67
2018-03-14T06:03:44.576Z,83.48
2018-03-14T06:04:44.590Z,83.76
2018-03-14T06:05:44.602Z,83.95
2018-03-14T06:06:44.625Z,84.33
2018-03-14T06:07:44.643Z,84.14
2018-03-14T06:08:44.684Z,83.58
2018-03-14T06:09:44.703Z,83.67
2018-03-14T06:10:44.690Z,83.39
2018-03-14T06:11:44.710Z,83.19
2018-03-14T06:12:44.725Z,83.29
2018-03-14T06:13:44.746Z,82.81
2018-03-14T06:14:44.765Z,83.00
2018-03-14T06:15:44.775Z,83.00
2018-03-14T06:16:44.796Z,82.71
2018-03-14T06:17:44.817Z,83.29
2018-03-14T06:18:44.840Z,83.29
2018-03-14T06:19:44.847Z,83.10
2018-03-14T06:20:44.866Z,82.28
2018-03-14T06:21:44.881Z,82.48
2018-03-14T06:22:44.897Z,81.96
2018-03-14T06:23:44.914Z,82.48
2018-03-14T06:24:44.935Z,82.28
2018-03-14T06:25:44.947Z,81.81
2018-03-14T06:26:45.007Z,82.05
2018-03-14T06:27:44.989Z,81.90
2018-03-14T06:28:44.996Z,81.52
2018-03-14T06:29:45.016Z,81.52
2018-03-14T06:30:45.033Z,81.81
2018-03-14T06:31:45.053Z,81.29
2018-03-14T06:32:45.088Z,81.67
2018-03-14T06:33:45.082Z,81.52
2018-03-14T06:34:45.105Z,81.71
2018-03-14T06:35:45.119Z,80.95
2018-03-14T06:36:45.137Z,81.24
2018-03-14T06:37:45.153Z,81.43
2018-03-14T06:38:45.176Z,81.52
2018-03-14T06:39:45.192Z,81.77
2018-03-14T06:40:45.217Z,81.01
2018-03-14T06:41:45.224Z,81.52
2018-03-14T06:42:45.241Z,81.52
2018-03-14T06:43:45.254Z,81.24
2018-03-14T06:44:45.273Z,80.38
2018-03-14T06:45:45.292Z,81.43
2018-03-14T06:46:45.371Z,80.76
2018-03-14T06:47:45.331Z,80.47
2018-03-14T06:48:45.341Z,81.24
2018-03-14T06:49:45.355Z,81.33
2018-03-14T06:50:45.374Z,81.24
2018-03-14T06:51:45.405Z,80.00
2018-03-14T06:52:45.414Z,79.72
2018-03-14T06:53:45.423Z,80.29
2018-03-14T06:54:45.445Z,80.10
2018-03-14T06:55:45.460Z,79.72
2018-03-14T06:56:45.487Z,79.24
2018-03-14T06:57:45.492Z,79.24
2018-03-14T06:58:45.509Z,78.77
2018-03-14T06:59:45.528Z,78.77
2018-03-14T07:00:45.545Z,78.77
2018-03-14T07:01:45.631Z,78.48
2018-03-14T07:02:45.582Z,78.19
2018-03-14T07:03:45.595Z,78.48
2018-03-14T07:04:45.612Z,78.67
2018-03-14T07:05:45.630Z,79.14
2018-03-14T07:06:45.647Z,79.01
2018-03-14T07:07:45.666Z,78.67
2018-03-14T07:08:45.680Z,78.48
2018-03-14T07:09:45.732Z,77.81
2018-03-14T07:10:45.719Z,77.53
2018-03-14T07:11:45.737Z,76.86
2018-03-14T07:12:45.747Z,76.57
2018-03-14T07:13:45.765Z,76.29
2018-03-14T07:14:45.781Z,76.29
2018-03-14T07:15:45.804Z,76.39
2018-03-14T07:16:45.827Z,76.67
2018-03-14T07:17:45.834Z,76.96
2018-03-14T07:18:45.851Z,76.96
2018-03-14T07:19:45.871Z,77.05
2018-03-14T07:20:45.886Z,76.86
2018-03-14T07:21:45.923Z,78.34
2018-03-14T07:22:45.920Z,78.29
2018-03-14T07:23:45.938Z,77.43
2018-03-14T07:24:45.963Z,77.72
2018-03-14T07:25:45.973Z,78.44
2018-03-14T07:26:45.995Z,78.44
2018-03-14T07:27:46.023Z,78.57
2018-03-14T07:28:46.025Z,78.29
2018-03-14T07:29:46.044Z,78.10
2018-03-14T07:30:46.059Z,77.62
2018-03-14T07:31:46.078Z,78.29
2018-03-14T07:32:46.090Z,77.15
2018-03-14T07:33:46.107Z,76.76
2018-03-14T07:34:46.137Z,76.67
2018-03-14T07:35:46.144Z,76.01
2018-03-14T07:36:46.165Z,76.01
2018-03-14T07:37:46.177Z,76.57
2018-03-14T07:38:46.196Z,76.01
2018-03-14T07:39:46.219Z,76.20
2018-03-14T07:40:46.232Z,76.10
2018-03-14T07:41:46.252Z,75.47
2018-03-14T07:42:46.267Z,75.34
2018-03-14T07:43:46.281Z,75.19
2018-03-14T07:44:46.305Z,74.77
2018-03-14T07:45:46.320Z,74.96
2018-03-14T07:46:46.337Z,74.99
2018-03-14T07:47:46.356Z,75.15
2018-03-14T07:48:46.372Z,75.05
2018-03-14T07:49:46.464Z,75.34
2018-03-14T07:50:46.424Z,74.80
2018-03-14T07:51:46.448Z,74.04
2018-03-14T07:52:46.447Z,74.33
2018-03-14T07:53:46.473Z,74.48
2018-03-14T07:54:46.479Z,75.15
2018-03-14T07:55:46.498Z,75.43
2018-03-14T07:56:46.517Z,76.01
2018-03-14T07:57:46.529Z,76.29
2018-03-14T07:58:46.587Z,76.29
2018-03-14T07:59:46.563Z,76.10
2018-03-14T08:00:46.578Z,76.54
2018-03-14T08:01:46.594Z,76.29
2018-03-14T08:02:46.616Z,76.76
2018-03-14T08:03:46.638Z,77.05
2018-03-14T08:04:46.654Z,77.05
2018-03-14T08:05:46.699Z,76.48
2018-03-14T08:06:46.685Z,75.91
2018-03-14T08:07:46.704Z,76.20
2018-03-14T08:08:46.720Z,75.38
2018-03-14T08:09:46.742Z,74.99
2018-03-14T08:10:46.759Z,74.04
2018-03-14T08:11:46.774Z,74.24
2018-03-14T08:12:46.793Z,74.71
2018-03-14T08:13:47.077Z,74.90
2018-03-14T08:14:46.832Z,74.80
2018-03-14T08:15:46.845Z,74.24
2018-03-14T08:16:46.861Z,74.43
2018-03-14T08:17:46.885Z,74.04
2018-03-14T08:18:46.897Z,74.33
2018-03-14T08:19:46.916Z,74.24
2018-03-14T08:20:46.930Z,73.76
2018-03-14T08:21:46.949Z,73.57
2018-03-14T08:22:46.975Z,73.57
2018-03-14T08:23:46.987Z,73.47
2018-03-14T08:24:47.004Z,73.19
2018-03-14T08:25:47.022Z,72.90
2018-03-14T08:26:47.070Z,73.28
2018-03-14T08:27:47.070Z,73.57
2018-03-14T08:28:47.077Z,71.89
2018-03-14T08:29:47.092Z,71.32
2018-03-14T08:30:47.109Z,71.22
2018-03-14T08:31:47.145Z,70.84
2018-03-14T08:32:47.147Z,71.13
2018-03-14T08:33:47.167Z,71.61
2018-03-14T08:34:47.184Z,71.32
2018-03-14T08:35:47.202Z,70.37
2018-03-14T08:36:47.223Z,69.89
2018-03-14T08:37:47.240Z,69.60
2018-03-14T08:38:47.253Z,70.37
2018-03-14T08:39:47.272Z,69.51
2018-03-14T08:40:47.305Z,68.84
2018-03-14T08:41:47.360Z,68.75
2018-03-14T08:42:47.328Z,69.23
2018-03-14T08:43:47.347Z,68.27
2018-03-14T08:44:47.365Z,67.99
2018-03-14T08:45:47.380Z,67.16
2018-03-14T08:46:47.424Z,66.37
2018-03-14T08:47:47.430Z,66.21
2018-03-14T08:48:47.433Z,66.37
2018-03-14T08:49:47.455Z,67.03
2018-03-14T08:50:47.475Z,66.85
2018-03-14T08:51:47.489Z,65.61
2018-03-14T08:52:47.507Z,66.31
2018-03-14T08:53:47.525Z,65.99
2018-03-14T08:54:47.545Z,66.37
2018-03-14T08:55:47.609Z,66.37
2018-03-14T08:56:47.615Z,65.99
2018-03-14T08:57:47.595Z,65.42
2018-03-14T08:58:47.615Z,65.13
2018-03-14T08:59:47.661Z,64.37
2018-03-14T09:00:47.653Z,64.65
2018-03-14T09:01:47.676Z,65.42
2018-03-14T09:02:47.690Z,64.47
2018-03-14T09:03:47.711Z,64.65
2018-03-14T09:04:47.746Z,64.56
2018-03-14T09:05:47.765Z,65.42
2018-03-14T09:06:47.785Z,65.13
2018-03-14T09:07:47.780Z,65.45
2018-03-14T09:08:47.797Z,64.75
2018-03-14T09:09:47.816Z,64.69
2018-03-14T09:10:47.842Z,63.64
2018-03-14T09:11:47.855Z,63.64
2018-03-14T09:12:47.871Z,64.56
2018-03-14T09:13:47.885Z,64.56
2018-03-14T09:14:47.905Z,64.69
2018-03-14T09:15:47.926Z,63.04
2018-03-14T09:16:47.946Z,62.78
2018-03-14T09:17:47.960Z,62.59
2018-03-14T09:18:47.980Z,62.37
2018-03-14T09:19:47.998Z,62.78
2018-03-14T09:20:48.011Z,62.02
2018-03-14T09:21:48.033Z,61.83
2018-03-14T09:22:48.050Z,61.45
2018-03-14T09:23:48.068Z,60.85
2018-03-14T09:24:48.103Z,61.45
2018-03-14T09:25:48.103Z,61.70
2018-03-14T09:26:48.122Z,61.54
2018-03-14T09:27:48.142Z,61.64
2018-03-14T09:28:48.161Z,61.73
2018-03-14T09:29:48.177Z,61.73
2018-03-14T09:30:48.198Z,61.54
2018-03-14T09:31:48.244Z,61.54
2018-03-14T09:32:48.232Z,61.83
2018-03-14T09:33:48.251Z,61.64
2018-03-14T09:34:48.279Z,61.64
2018-03-14T09:35:48.286Z,61.07
2018-03-14T09:36:48.306Z,61.16
2018-03-14T09:37:48.327Z,60.88
2018-03-14T09:38:48.342Z,60.49
2018-03-14T09:39:48.371Z,60.69
2018-03-14T09:40:48.380Z,61.04
2018-03-14T09:41:48.397Z,61.64
2018-03-14T09:42:48.418Z,61.45
2018-03-14T09:43:48.498Z,61.07
2018-03-14T09:44:48.455Z,61.07
2018-03-14T09:45:48.475Z,60.78
2018-03-14T09:46:48.493Z,60.49
2018-03-14T09:47:48.519Z,60.97
2018-03-14T09:48:48.528Z,61.07
2018-03-14T09:49:48.544Z,60.78
2018-03-14T09:50:48.564Z,60.05
2018-03-14T09:51:48.585Z,58.97
2018-03-14T09:52:48.600Z,58.78
2018-03-14T09:53:48.617Z,58.40
2018-03-14T09:54:48.648Z,58.30
2018-03-14T09:55:48.656Z,59.26
2018-03-14T09:56:48.681Z,59.35
2018-03-14T09:57:48.709Z,59.74
2018-03-14T09:58:48.716Z,60.30
2018-03-14T09:59:48.739Z,60.40
2018-03-14T10:00:48.790Z,60.59
2018-03-14T10:01:48.783Z,59.74
2018-03-14T10:02:48.802Z,59.26
2018-03-14T10:03:48.834Z,59.74
2018-03-14T10:04:48.828Z,59.74
2018-03-14T10:05:48.861Z,59.35
2018-03-14T10:06:48.866Z,58.43
2018-03-14T10:07:48.884Z,58.81
2018-03-14T10:08:48.909Z,58.24
2018-03-14T10:09:48.920Z,58.91
2018-03-14T10:10:48.942Z,58.33
2018-03-14T10:11:48.960Z,58.33
2018-03-14T10:12:48.981Z,57.86
2018-03-14T10:13:49.002Z,58.72
2018-03-14T10:14:49.017Z,58.46
2018-03-14T10:15:49.036Z,57.98
2018-03-14T10:16:49.053Z,57.57
2018-03-14T10:17:49.075Z,57.86
2018-03-14T10:18:49.092Z,57.86
2018-03-14T10:19:49.115Z,58.52
2018-03-14T10:20:49.132Z,58.55
2018-03-14T10:21:49.188Z,57.95
2018-03-14T10:22:49.174Z,58.72
2018-03-14T10:23:49.191Z,58.50
2018-03-14T10:24:49.207Z,58.97
2018-03-14T10:25:49.317Z,58.14
2018-03-14T10:26:49.250Z,57.57
2018-03-14T10:27:49.271Z,57.09
2018-03-14T10:28:49.294Z,57.19
2018-03-14T10:29:49.307Z,57.28
2018-03-14T10:30:49.331Z,57.00
2018-03-14T10:31:49.346Z,57.09
2018-03-14T10:32:49.363Z,57.41
2018-03-14T10:33:49.384Z,57.31
2018-03-14T10:34:49.409Z,56.84
2018-03-14T10:35:49.430Z,57.03
2018-03-14T10:36:49.457Z,57.22
2018-03-14T10:37:49.461Z,56.17
2018-03-14T10:38:49.481Z,55.98
2018-03-14T10:39:49.501Z,56.36
2018-03-14T10:40:49.541Z,56.20
2018-03-14T10:41:49.595Z,55.79
2018-03-14T10:42:49.561Z,55.12
2018-03-14T10:43:49.580Z,55.02
2018-03-14T10:44:49.600Z,54.55
2018-03-14T10:45:49.620Z,54.17
2018-03-14T10:46:49.642Z,53.97
2018-03-14T10:47:49.660Z,53.53
2018-03-14T10:48:49.682Z,53.41
2018-03-14T10:49:49.697Z,53.62
2018-03-14T10:50:49.723Z,53.24
2018-03-14T10:51:49.744Z,52.86
2018-03-14T10:52:49.759Z,52.76
2018-03-14T10:53:49.781Z,52.38
2018-03-14T10:54:49.807Z,52.79
2018-03-14T10:55:49.820Z,53.55
2018-03-14T10:56:49.856Z,53.65
2018-03-14T10:57:49.856Z,53.27
2018-03-14T10:58:49.949Z,53.45
2018-03-14T10:59:49.903Z,53.27
2018-03-14T11:00:49.923Z,53.74
2018-03-14T11:01:49.941Z,52.69
2018-03-14T11:02:49.964Z,52.95
2018-03-14T11:03:49.981Z,52.67
2018-03-14T11:04:50.004Z,52.67
2018-03-14T11:05:50.027Z,52.38
2018-03-14T11:06:50.045Z,52.48
2018-03-14T11:07:50.069Z,52.73
2018-03-14T11:08:50.087Z,53.12
2018-03-14T11:09:50.106Z,53.69
2018-03-14T11:10:50.127Z,53.97
2018-03-14T11:11:50.156Z,54.17
2018-03-14T11:12:50.165Z,53.88
2018-03-14T11:13:50.184Z,53.59
2018-03-14T11:14:50.215Z,53.69
2018-03-14T11:15:50.398Z,53.69
2018-03-14T11:16:50.324Z,54.17
2018-03-14T11:17:50.269Z,54.00
2018-03-14T11:18:50.286Z,53.24
2018-03-14T11:19:50.305Z,53.05
2018-03-14T11:20:50.331Z,51.71
2018-03-14T11:21:50.350Z,51.71
2018-03-14T11:22:50.370Z,52.09
2018-03-14T11:23:50.393Z,51.54
2018-03-14T11:24:50.412Z,52.22
2018-03-14T11:25:50.433Z,52.69
2018-03-14T11:26:50.452Z,51.83
2018-03-14T11:27:50.494Z,52.12
2018-03-14T11:28:50.502Z,51.83
2018-03-14T11:29:50.522Z,52.38
2018-03-14T11:30:50.548Z,51.74
2018-03-14T11:31:50.557Z,51.64
2018-03-14T11:32:50.582Z,51.83
2018-03-14T11:33:50.597Z,52.03
2018-03-14T11:34:50.625Z,51.45
2018-03-14T11:35:50.646Z,52.50
2018-03-14T11:36:50.660Z,51.35
2018-03-14T11:37:50.705Z,50.78
2018-03-14T11:38:50.707Z,50.98
2018-03-14T11:39:50.733Z,51.26
2018-03-14T11:40:50.744Z,50.88
2018-03-14T11:41:50.765Z,51.17
2018-03-14T11:42:50.785Z,51.64
2018-03-14T11:43:50.806Z,51.45
2018-03-14T11:44:50.829Z,51.26
2018-03-14T11:45:50.849Z,51.43
2018-03-14T11:46:50.879Z,51.64
2018-03-14T11:47:50.891Z,50.98
2018-03-14T11:48:50.912Z,51.26
2018-03-14T11:49:50.930Z,51.45
2018-03-14T11:50:50.955Z,51.07
2018-03-14T11:51:50.978Z,50.98
2018-03-14T11:52:51.019Z,51.26
2018-03-14T11:53:51.019Z,50.40
2018-03-14T11:54:51.040Z,50.57
2018-03-14T11:55:51.060Z,51.04
2018-03-14T11:56:51.084Z,50.40
2018-03-14T11:57:51.101Z,50.59
2018-03-14T11:58:51.122Z,50.78
2018-03-14T11:59:51.144Z,50.88
2018-03-14T12:00:51.163Z,50.40
2018-03-14T12:01:51.186Z,50.02
2018-03-14T12:02:51.203Z,50.14
2018-03-14T12:03:51.226Z,49.47
2018-03-14T12:04:51.270Z,49.18
2018-03-14T12:05:51.271Z,48.33
2018-03-14T12:06:51.294Z,48.21
2018-03-14T12:07:51.311Z,48.21
2018-03-14T12:08:51.337Z,48.23
2018-03-14T12:09:51.355Z,47.66
2018-03-14T12:10:51.380Z,47.58
2018-03-14T12:11:51.414Z,47.52
2018-03-14T12:12:51.423Z,45.60
2018-03-14T12:13:51.437Z,45.24
2018-03-14T12:14:51.461Z,44.93
2018-03-14T12:15:51.482Z,46.17
2018-03-14T12:16:51.505Z,45.29
2018-03-14T12:17:51.525Z,45.87
2018-03-14T12:18:51.544Z,46.17
2018-03-14T12:19:51.567Z,46.27
2018-03-14T12:20:51.610Z,46.08
2018-03-14T12:21:51.609Z,45.31
2018-03-14T12:22:51.633Z,45.41
2018-03-14T12:23:51.662Z,45.34
2018-03-14T12:24:51.675Z,44.88
2018-03-14T12:25:51.695Z,44.12
2018-03-14T12:26:51.723Z,43.83
2018-03-14T12:27:51.741Z,43.73
2018-03-14T12:28:51.813Z,43.83
2018-03-14T12:29:51.879Z,43.73
2018-03-14T12:30:51.839Z,43.90
2018-03-14T12:31:51.826Z,44.00
2018-03-14T12:32:51.858Z,43.92
2018-03-14T12:33:51.874Z,43.95
2018-03-14T12:34:51.904Z,42.51
2018-03-14T12:35:51.918Z,42.68
2018-03-14T12:36:51.942Z,43.90
2018-03-14T12:37:51.968Z,43.27
2018-03-14T12:38:51.984Z,42.41
2018-03-14T12:39:52.011Z,42.32
2018-03-14T12:40:52.032Z,42.44
2018-03-14T12:41:52.058Z,43.18
2018-03-14T12:42:52.076Z,42.87
2018-03-14T12:43:52.106Z,43.35
2018-03-14T12:44:52.126Z,41.74
2018-03-14T12:45:52.172Z,41.55
2018-03-14T12:46:52.176Z,42.11
2018-03-14T12:47:52.200Z,42.40
2018-03-14T12:48:52.220Z,42.13
2018-03-14T12:49:52.251Z,41.91
2018-03-14T12:50:52.270Z,42.87
2018-03-14T12:51:52.336Z,42.70
2018-03-14T12:52:52.320Z,41.78